Terminal Aerodrome Forecast
Issued by NWS

Home | Current Version | Previous Version | Graphics & Text | Print | Product List | Glossary On
Versions: 1 2 3 4 5 6 7 8 9 10 11 12 13 14 15 16 17 18 19 20
000
FTUS42 KMHX 241543 AAA
TAFOAJ
TAF AMD
KOAJ 241543Z 2416/2512 01010KT 1 1/2SM -SN BKN015 BKN025 OVC045
     FM242000 01006KT 2SM -FZRA BR OVC003
     FM250300 35005KT 4SM BR OVC005
     FM250900 31004KT P6SM SCT030
      AMD LTD TO CLD VIS AND WIND=

USA.gov is the U.S. government's official web portal to all federal, state and local government web resources and services.